Time;durP1;ratioP1;P1;durP2;ratioP2;P2;SDS_P1;SDS_P2;PMS_P1;PMS_P2;Temp;Humidity;BMP_temperature;BMP_pressure;BME280_temperature;BME280_humidity;BME280_pressure;Samples;Min_cycle;Max_cycle;Signal;HPM_P1;HPM_P2
2023/06/28 00:00:43;;;;;;;;;;;24.50;49.10;;;;;;10332668;28;94501;-67
2023/06/28 00:05:45;;;;;;;;;;;24.50;49.10;;;;;;10332187;28;92855;-67
2023/06/28 00:10:47;;;;;;;;;;;24.50;49.10;;;;;;10331596;28;93562;-68
2023/06/28 00:15:49;;;;;;;;;;;24.50;49.10;;;;;;10333187;28;93205;-68
2023/06/28 00:20:50;;;;;;;;;;;24.50;49.10;;;;;;10314780;28;94511;-68
2023/06/28 00:25:52;;;;;;;;;;;24.50;49.00;;;;;;10331998;28;93866;-67
2023/06/28 00:30:54;;;;;;;;;;;24.50;49.00;;;;;;10332939;28;93766;-67
2023/06/28 00:35:55;;;;;;;;;;;24.40;49.00;;;;;;10332034;28;96790;-67
2023/06/28 00:40:57;;;;;;;;;;;24.50;49.00;;;;;;10331045;28;93682;-67
2023/06/28 00:45:59;;;;;;;;;;;24.40;49.00;;;;;;10329121;28;95835;-67
2023/06/28 00:51:02;;;;;;;;;;;24.40;49.00;;;;;;10331172;28;94512;-66
2023/06/28 00:56:04;;;;;;;;;;;24.40;49.10;;;;;;10331503;28;93528;-65
2023/06/28 01:01:06;;;;;;;;;;;24.40;49.10;;;;;;10330597;28;93584;-66
2023/06/28 01:06:10;;;;;;;;;;;24.40;49.20;;;;;;10330377;28;94478;-66
2023/06/28 01:11:11;;;;;;;;;;;24.40;49.20;;;;;;10330645;28;93493;-66
2023/06/28 01:16:13;;;;;;;;;;;24.40;49.30;;;;;;10330127;28;93611;-66
2023/06/28 01:21:16;;;;;;;;;;;24.40;49.40;;;;;;10330717;28;92803;-68
2023/06/28 01:26:17;;;;;;;;;;;24.40;49.40;;;;;;10312893;28;93537;-66
2023/06/28 01:31:19;;;;;;;;;;;24.30;49.30;;;;;;10329380;28;93596;-61
2023/06/28 01:36:21;;;;;;;;;;;24.30;49.30;;;;;;10327781;28;95961;-66
2023/06/28 01:41:23;;;;;;;;;;;24.30;49.30;;;;;;10330212;28;93901;-61
2023/06/28 01:46:25;;;;;;;;;;;24.40;49.40;;;;;;10312271;28;93500;-66
2023/06/28 01:51:27;;;;;;;;;;;24.30;49.30;;;;;;10329930;28;94343;-66
2023/06/28 01:56:29;;;;;;;;;;;24.30;49.30;;;;;;10329376;28;93313;-61
2023/06/28 02:01:31;;;;;;;;;;;24.40;49.40;;;;;;10328966;28;92800;-66
2023/06/28 02:06:32;;;;;;;;;;;24.40;49.40;;;;;;10328779;28;92462;-66
2023/06/28 02:11:34;;;;;;;;;;;24.40;49.40;;;;;;10330013;28;92256;-66
2023/06/28 02:16:37;;;;;;;;;;;24.40;49.40;;;;;;10311071;28;93261;-66
2023/06/28 02:21:40;;;;;;;;;;;24.40;49.40;;;;;;10328518;28;93207;-65
2023/06/28 02:26:42;;;;;;;;;;;24.40;49.40;;;;;;10326307;28;96891;-66
2023/06/28 02:31:44;;;;;;;;;;;24.40;49.40;;;;;;10327756;28;94297;-66
2023/06/28 02:36:45;;;;;;;;;;;24.40;49.50;;;;;;10327374;28;93573;-65
2023/06/28 02:41:47;;;;;;;;;;;24.40;49.40;;;;;;10328036;28;94630;-65
2023/06/28 02:46:49;;;;;;;;;;;24.40;49.40;;;;;;10327402;28;93413;-66
2023/06/28 02:51:51;;;;;;;;;;;24.40;49.40;;;;;;10328815;28;94836;-66
2023/06/28 02:56:52;;;;;;;;;;;24.40;49.50;;;;;;10327826;28;93533;-66
2023/06/28 03:01:54;;;;;;;;;;;24.40;49.50;;;;;;10328694;28;93380;-66
2023/06/28 03:06:56;;;;;;;;;;;24.40;49.50;;;;;;10328890;28;94707;-66
2023/06/28 03:11:58;;;;;;;;;;;24.40;49.60;;;;;;10327629;28;93335;-66
2023/06/28 03:17:00;;;;;;;;;;;24.40;49.60;;;;;;10324898;28;96992;-66
2023/06/28 03:22:01;;;;;;;;;;;24.30;49.70;;;;;;10326471;28;93916;-66
2023/06/28 03:27:03;;;;;;;;;;;24.30;49.50;;;;;;10326380;28;93673;-67
2023/06/28 03:32:05;;;;;;;;;;;24.30;49.50;;;;;;10326344;28;93696;-67
2023/06/28 03:37:07;;;;;;;;;;;24.30;49.50;;;;;;10327059;28;94512;-66
2023/06/28 03:42:09;;;;;;;;;;;24.30;49.60;;;;;;10326937;28;94217;-66
2023/06/28 03:47:11;;;;;;;;;;;24.30;49.60;;;;;;10325920;28;94581;-66
2023/06/28 03:52:12;;;;;;;;;;;24.30;49.60;;;;;;10327448;28;92781;-66
2023/06/28 03:57:14;;;;;;;;;;;24.20;50.70;;;;;;10332883;28;92591;-66
2023/06/28 04:02:16;;;;;;;;;;;24.20;49.70;;;;;;10332248;28;94787;-66
2023/06/28 04:07:24;;;;;;;;;;;24.20;49.80;;;;;;10331273;28;96908;-66
2023/06/28 04:12:27;;;;;;;;;;;24.20;49.80;;;;;;10331740;28;94554;-66
2023/06/28 04:17:28;;;;;;;;;;;24.20;49.90;;;;;;10333524;28;94507;-66
2023/06/28 04:22:31;;;;;;;;;;;24.20;49.90;;;;;;10314635;28;94618;-66
2023/06/28 04:27:32;;;;;;;;;;;24.20;50.00;;;;;;10331769;28;93533;-66
2023/06/28 04:32:34;;;;;;;;;;;24.20;50.00;;;;;;10333189;28;93501;-61
2023/06/28 04:37:38;;;;;;;;;;;24.10;50.00;;;;;;10331910;28;93490;-60
2023/06/28 04:42:40;;;;;;;;;;;24.10;50.10;;;;;;10332497;28;93913;-61
2023/06/28 04:47:41;;;;;;;;;;;24.10;50.10;;;;;;10751682;22;94356;-64
2023/06/28 04:52:43;;;;;;;;;;;24.10;50.20;;;;;;10313625;28;93965;-64
2023/06/28 04:57:45;;;;;;;;;;;24.10;50.20;;;;;;10328605;28;96859;-64
2023/06/28 05:02:50;;;;;;;;;;;24.10;50.30;;;;;;10313775;28;94671;-64
2023/06/28 05:07:55;;;;;;;;;;;24.10;50.30;;;;;;10330633;28;94395;-64
2023/06/28 05:12:57;;;;;;;;;;;24.10;50.20;;;;;;10330274;28;93841;-65
2023/06/28 05:17:58;;;;;;;;;;;24.10;50.30;;;;;;10331709;28;94578;-63
2023/06/28 05:23:10;;;;;;;;;;;24.10;51.10;;;;;;10330288;28;95418;-63
2023/06/28 05:28:13;;;;;;;;;;;24.00;51.90;;;;;;10329369;28;93569;-64
2023/06/28 05:33:15;;;;;;;;;;;24.00;51.90;;;;;;10330127;28;92824;-64
2023/06/28 05:38:16;;;;;;;;;;;24.00;51.90;;;;;;10329272;28;94009;-64
2023/06/28 05:43:21;;;;;;;;;;;24.00;52.10;;;;;;10311619;28;94388;-64
2023/06/28 05:48:22;;;;;;;;;;;24.00;52.00;;;;;;10324804;28;96566;-64
2023/06/28 05:53:24;;;;;;;;;;;24.00;52.10;;;;;;10329604;28;93854;-64
2023/06/28 05:58:26;;;;;;;;;;;24.00;52.10;;;;;;10329431;28;93297;-64
2023/06/28 06:03:30;;;;;;;;;;;24.00;52.30;;;;;;10328316;28;93542;-64
2023/06/28 06:08:32;;;;;;;;;;;24.00;51.90;;;;;;10310700;28;93702;-63
2023/06/28 06:13:34;;;;;;;;;;;24.00;52.10;;;;;;10329249;28;95174;-63
2023/06/28 06:18:39;;;;;;;;;;;24.00;52.00;;;;;;10328273;28;94467;-63
2023/06/28 06:23:41;;;;;;;;;;;24.00;51.90;;;;;;10329317;28;93112;-65
2023/06/28 06:28:43;;;;;;;;;;;24.00;51.90;;;;;;10327803;28;93580;-65
2023/06/28 06:33:44;;;;;;;;;;;24.00;51.90;;;;;;10327912;28;95147;-65
2023/06/28 06:38:46;;;;;;;;;;;24.00;51.90;;;;;;10325429;28;96834;-65
2023/06/28 06:43:51;;;;;;;;;;;24.00;51.90;;;;;;10328346;28;94477;-65
2023/06/28 06:48:53;;;;;;;;;;;24.00;51.90;;;;;;10328547;28;94625;-65
2023/06/28 06:53:55;;;;;;;;;;;24.00;52.00;;;;;;10309772;28;93665;-65
2023/06/28 06:58:57;;;;;;;;;;;24.00;51.90;;;;;;10327641;28;93639;-65
2023/06/28 07:03:59;;;;;;;;;;;24.00;51.80;;;;;;10327623;28;94492;-65
2023/06/28 07:09:00;;;;;;;;;;;24.00;52.00;;;;;;10327047;28;93698;-65
2023/06/28 07:14:02;;;;;;;;;;;23.90;51.80;;;;;;10328539;28;93950;-65
2023/06/28 07:19:05;;;;;;;;;;;24.00;51.90;;;;;;10327991;28;93857;-65
2023/06/28 07:24:08;;;;;;;;;;;23.90;51.90;;;;;;10326477;28;94329;-65
2023/06/28 07:29:09;;;;;;;;;;;24.00;51.90;;;;;;10328359;28;96972;-66
2023/06/28 07:34:11;;;;;;;;;;;24.00;51.80;;;;;;10334180;28;94834;-66
2023/06/28 07:39:13;;;;;;;;;;;23.90;52.10;;;;;;10334089;28;94516;-64
2023/06/28 07:44:14;;;;;;;;;;;23.90;52.10;;;;;;10333988;28;93595;-64
2023/06/28 07:49:16;;;;;;;;;;;23.90;52.00;;;;;;10333505;28;93531;-64
2023/06/28 07:54:18;;;;;;;;;;;23.90;52.10;;;;;;10316246;28;93384;-64
2023/06/28 07:59:34;;;;;;;;;;;23.90;52.20;;;;;;10333591;28;94464;-64
2023/06/28 08:04:35;;;;;;;;;;;23.90;52.30;;;;;;10335056;28;92968;-64
2023/06/28 08:09:40;;;;;;;;;;;23.90;52.40;;;;;;10333156;28;93469;-64
2023/06/28 08:14:42;;;;;;;;;;;23.90;52.50;;;;;;10333416;28;93506;-64
2023/06/28 08:19:43;;;;;;;;;;;23.90;52.60;;;;;;10331214;28;96967;-65
2023/06/28 08:24:45;;;;;;;;;;;23.90;52.60;;;;;;10333456;28;94524;-64
2023/06/28 08:29:46;;;;;;;;;;;23.80;52.60;;;;;;10332874;28;93637;-63
2023/06/28 08:34:48;;;;;;;;;;;23.80;52.70;;;;;;10331575;28;93521;-64
2023/06/28 08:39:50;;;;;;;;;;;23.80;52.90;;;;;;10314966;28;94096;-63
2023/06/28 08:44:55;;;;;;;;;;;23.80;52.80;;;;;;10314442;28;94480;-64
2023/06/28 08:49:57;;;;;;;;;;;23.80;52.80;;;;;;10332368;28;93472;-64
2023/06/28 08:54:58;;;;;;;;;;;23.90;53.00;;;;;;10331876;28;93814;-64
2023/06/28 09:00:00;;;;;;;;;;;23.80;52.90;;;;;;10331220;28;93561;-64
2023/06/28 09:05:03;;;;;;;;;;;23.80;52.90;;;;;;10313355;28;95283;-64
2023/06/28 09:10:06;;;;;;;;;;;23.80;52.90;;;;;;10328460;28;96726;-64
2023/06/28 09:15:08;;;;;;;;;;;23.90;53.00;;;;;;10331892;28;94983;-64
2023/06/28 09:20:16;;;;;;;;;;;23.90;53.00;;;;;;10331122;28;94553;-64
2023/06/28 09:25:19;;;;;;;;;;;23.90;53.10;;;;;;10331444;28;94610;-65
2023/06/28 09:30:20;;;;;;;;;;;23.90;52.90;;;;;;10330728;28;93721;-64
2023/06/28 09:35:23;;;;;;;;;;;23.90;52.90;;;;;;10312584;28;93521;-64
2023/06/28 09:40:26;;;;;;;;;;;23.90;53.10;;;;;;10330470;28;94428;-64
2023/06/28 09:45:29;;;;;;;;;;;23.90;53.10;;;;;;10330066;28;92910;-63
2023/06/28 09:50:37;;;;;;;;;;;23.90;53.10;;;;;;10328115;28;94319;-64
2023/06/28 09:55:40;;;;;;;;;;;23.90;53.10;;;;;;10329726;28;94571;-64
2023/06/28 10:00:43;;;;;;;;;;;23.90;53.00;;;;;;10327174;28;95356;-64
2023/06/28 10:05:45;;;;;;;;;;;23.90;53.00;;;;;;10312587;28;94482;-64
2023/06/28 10:10:48;;;;;;;;;;;23.90;53.20;;;;;;10328942;28;93612;-64
2023/06/28 10:15:52;;;;;;;;;;;23.90;53.10;;;;;;10328958;28;94451;-64
2023/06/28 10:20:54;;;;;;;;;;;23.80;53.20;;;;;;10328960;28;94743;-64
2023/06/28 10:25:58;;;;;;;;;;;23.80;53.10;;;;;;10328310;28;94656;-63
2023/06/28 10:31:02;;;;;;;;;;;23.80;53.30;;;;;;10328678;28;95986;-64
2023/06/28 10:36:04;;;;;;;;;;;23.90;53.30;;;;;;10329435;28;93676;-63
2023/06/28 10:41:06;;;;;;;;;;;23.80;53.40;;;;;;10328407;28;94614;-65
2023/06/28 10:46:21;;;;;;;;;;;23.80;53.50;;;;;;10328745;28;93662;-63
2023/06/28 10:51:26;;;;;;;;;;;23.80;53.60;;;;;;10306854;28;95809;-64
2023/06/28 10:56:34;;;;;;;;;;;23.80;53.70;;;;;;10310880;28;93202;-64
2023/06/28 11:01:38;;;;;;;;;;;23.80;53.70;;;;;;10329112;28;95110;-64
2023/06/28 11:06:40;;;;;;;;;;;23.80;53.80;;;;;;10318056;28;94293;-64
2023/06/28 11:11:46;;;;;;;;;;;23.80;53.90;;;;;;10335764;28;94872;-63
2023/06/28 11:16:48;;;;;;;;;;;23.80;53.90;;;;;;10336928;28;93358;-64
2023/06/28 11:22:01;;;;;;;;;;;23.80;54.00;;;;;;10335244;28;94544;-64
2023/06/28 11:27:03;;;;;;;;;;;23.70;54.20;;;;;;10317236;28;93752;-64
2023/06/28 11:32:05;;;;;;;;;;;23.80;54.20;;;;;;10316787;28;92961;-64
2023/06/28 11:37:06;;;;;;;;;;;23.80;54.00;;;;;;10334111;28;94523;-64
2023/06/28 11:42:12;;;;;;;;;;;23.80;54.20;;;;;;10331618;28;97208;-64
2023/06/28 11:47:16;;;;;;;;;;;23.80;54.20;;;;;;10316307;28;94666;-64
2023/06/28 11:52:23;;;;;;;;;;;23.80;54.30;;;;;;10332975;28;92933;-64
2023/06/28 11:57:25;;;;;;;;;;;23.80;53.90;;;;;;10333733;28;93609;-64
2023/06/28 12:02:28;;;;;;;;;;;23.80;54.20;;;;;;10332634;28;93407;-64
2023/06/28 12:07:29;;;;;;;;;;;23.90;54.20;;;;;;10333345;28;94468;-64
2023/06/28 12:12:32;;;;;;;;;;;23.90;54.20;;;;;;10332317;28;93436;-64
2023/06/28 12:17:41;;;;;;;;;;;23.90;54.40;;;;;;10333701;28;92707;-64
2023/06/28 12:22:44;;;;;;;;;;;24.00;54.60;;;;;;10332447;28;93728;-64
2023/06/28 12:27:59;;;;;;;;;;;24.00;54.50;;;;;;10331935;28;92811;-64
2023/06/28 12:33:04;;;;;;;;;;;24.00;54.60;;;;;;10329960;28;96179;-64
2023/06/28 12:38:07;;;;;;;;;;;24.00;54.50;;;;;;10314450;28;94784;-64
2023/06/28 12:43:08;;;;;;;;;;;24.00;54.60;;;;;;10331907;28;94671;-64
2023/06/28 12:48:13;;;;;;;;;;;24.00;54.10;;;;;;10332135;28;94072;-64
2023/06/28 12:53:15;;;;;;;;;;;24.00;54.00;;;;;;10331938;28;93465;-64
2023/06/28 12:58:16;;;;;;;;;;;24.00;54.30;;;;;;10331549;28;94585;-64
2023/06/28 13:03:18;;;;;;;;;;;24.00;54.60;;;;;;10329411;28;93960;-63
2023/06/28 13:08:25;;;;;;;;;;;24.00;54.40;;;;;;10331701;28;92890;-64
2023/06/28 13:13:27;;;;;;;;;;;24.00;54.70;;;;;;10330885;28;94485;-64
2023/06/28 13:18:29;;;;;;;;;;;24.00;55.10;;;;;;10330497;28;93653;-64
2023/06/28 13:23:31;;;;;;;;;;;24.00;56.20;;;;;;10327547;28;96932;-65
2023/06/28 13:28:32;;;;;;;;;;;24.00;56.00;;;;;;10328599;28;92805;-65
2023/06/28 13:33:34;;;;;;;;;;;24.00;56.90;;;;;;10330494;28;94653;-64
2023/06/28 13:38:36;;;;;;;;;;;24.00;55.80;;;;;;10330474;28;92969;-66
2023/06/28 13:43:38;;;;;;;;;;;24.00;56.00;;;;;;10329394;28;93336;-66
2023/06/28 13:48:40;;;;;;;;;;;23.90;56.10;;;;;;10329249;28;93641;-66
2023/06/28 13:53:42;;;;;;;;;;;23.90;56.30;;;;;;10329026;28;93560;-65
2023/06/28 13:58:43;;;;;;;;;;;23.90;56.40;;;;;;10330148;28;91862;-66
2023/06/28 14:03:45;;;;;;;;;;;23.90;56.10;;;;;;10329519;28;93489;-65
2023/06/28 14:08:47;;;;;;;;;;;23.90;56.50;;;;;;10328992;28;94418;-65
2023/06/28 14:13:48;;;;;;;;;;;23.80;56.60;;;;;;10327090;28;95230;-67
2023/06/28 14:18:50;;;;;;;;;;;23.80;56.40;;;;;;10329819;28;94741;-65
2023/06/28 14:23:52;;;;;;;;;;;23.80;56.50;;;;;;10311193;28;94547;-64
2023/06/28 14:29:01;;;;;;;;;;;23.80;56.20;;;;;;10312371;28;94662;-65
2023/06/28 14:34:03;;;;;;;;;;;23.80;56.20;;;;;;10327307;28;93868;-65
2023/06/28 14:39:05;;;;;;;;;;;23.80;56.10;;;;;;10328365;28;94795;-64
2023/06/28 14:44:06;;;;;;;;;;;23.80;56.40;;;;;;10327757;28;92728;-65
2023/06/28 14:49:08;;;;;;;;;;;23.80;56.20;;;;;;10327561;28;92816;-65
2023/06/28 14:54:10;;;;;;;;;;;23.80;56.30;;;;;;10327447;28;93979;-65
2023/06/28 14:59:11;;;;;;;;;;;23.80;56.10;;;;;;10311003;28;94498;-64
2023/06/28 15:04:13;;;;;;;;;;;23.90;56.10;;;;;;10324715;28;96137;-65
2023/06/28 15:09:15;;;;;;;;;;;23.90;56.00;;;;;;10326972;28;93984;-64
2023/06/28 15:14:17;;;;;;;;;;;23.90;56.00;;;;;;10327304;28;92496;-64
2023/06/28 15:19:18;;;;;;;;;;;23.90;56.30;;;;;;10309415;28;93682;-63
2023/06/28 15:24:21;;;;;;;;;;;23.80;58.70;;;;;;10309140;28;94142;-64
2023/06/28 15:29:25;;;;;;;;;;;23.80;59.50;;;;;;10326684;28;93542;-62
2023/06/28 15:34:27;;;;;;;;;;;23.70;60.20;;;;;;10325947;28;93528;-63
2023/06/28 15:39:29;;;;;;;;;;;23.70;61.60;;;;;;10309820;28;93943;-62
2023/06/28 15:44:30;;;;;;;;;;;23.80;62.40;;;;;;10325780;28;94007;-62
2023/06/28 15:49:32;;;;;;;;;;;23.90;62.10;;;;;;10328644;28;93419;-61
2023/06/28 15:54:34;;;;;;;;;;;24.00;62.10;;;;;;10331253;28;95898;-66
2023/06/28 15:59:35;;;;;;;;;;;24.10;61.30;;;;;;10332601;28;94723;-64
2023/06/28 16:04:37;;;;;;;;;;;24.20;61.50;;;;;;10332582;28;93484;-63
2023/06/28 16:09:40;;;;;;;;;;;24.40;61.00;;;;;;10330850;28;95485;-63
2023/06/28 16:14:42;;;;;;;;;;;24.40;60.80;;;;;;10332405;28;92626;-63
2023/06/28 16:19:43;;;;;;;;;;;24.40;61.30;;;;;;10333581;28;94718;-63
2023/06/28 16:24:45;;;;;;;;;;;24.40;61.40;;;;;;10331159;28;95743;-63
2023/06/28 16:29:48;;;;;;;;;;;24.60;61.80;;;;;;10332542;28;93868;-63
2023/06/28 16:34:49;;;;;;;;;;;24.60;61.40;;;;;;10330732;28;94676;-63
2023/06/28 16:39:51;;;;;;;;;;;24.40;61.50;;;;;;10311065;28;93005;-63
2023/06/28 16:44:53;;;;;;;;;;;24.40;61.60;;;;;;10325211;28;96220;-63
2023/06/28 16:49:55;;;;;;;;;;;24.30;61.60;;;;;;10329497;28;94593;-61
2023/06/28 16:54:57;;;;;;;;;;;24.20;61.30;;;;;;10330765;28;94165;-64
2023/06/28 16:59:58;;;;;;;;;;;24.20;61.60;;;;;;10330834;28;93847;-63
2023/06/28 17:05:00;;;;;;;;;;;24.10;61.60;;;;;;10313332;28;94095;-64
2023/06/28 17:10:02;;;;;;;;;;;24.10;61.70;;;;;;10326587;28;92920;-64
2023/06/28 17:15:04;;;;;;;;;;;24.10;61.30;;;;;;10330837;28;94512;-64
2023/06/28 17:20:06;;;;;;;;;;;24.00;61.70;;;;;;10331253;28;93897;-65
2023/06/28 17:25:08;;;;;;;;;;;24.00;62.00;;;;;;10331021;28;94502;-64
2023/06/28 17:30:10;;;;;;;;;;;24.00;62.10;;;;;;10331329;28;92630;-64
2023/06/28 17:35:12;;;;;;;;;;;24.00;62.20;;;;;;10322289;28;96217;-64
2023/06/28 17:40:13;;;;;;;;;;;24.00;62.60;;;;;;10293269;28;94723;-65
2023/06/28 17:45:15;;;;;;;;;;;23.90;62.60;;;;;;10305072;28;94874;-64
2023/06/28 17:50:17;;;;;;;;;;;23.90;62.80;;;;;;10312837;28;94568;-64
2023/06/28 17:55:19;;;;;;;;;;;23.90;63.10;;;;;;10308927;28;93576;-64
2023/06/28 18:00:21;;;;;;;;;;;23.80;63.20;;;;;;10320433;28;93733;-65
2023/06/28 18:05:22;;;;;;;;;;;23.80;63.30;;;;;;10330707;28;93644;-63
2023/06/28 18:10:24;;;;;;;;;;;23.80;63.50;;;;;;10324232;28;92842;-64
2023/06/28 18:15:26;;;;;;;;;;;23.80;63.60;;;;;;10325256;28;93682;-64
2023/06/28 18:20:28;;;;;;;;;;;23.80;63.90;;;;;;10307340;28;93629;-64
2023/06/28 18:25:29;;;;;;;;;;;23.80;64.00;;;;;;10325103;28;96426;-64
2023/06/28 18:30:31;;;;;;;;;;;23.70;64.00;;;;;;10325923;28;94554;-64
2023/06/28 18:35:33;;;;;;;;;;;23.70;64.10;;;;;;10321795;28;93838;-63
2023/06/28 18:40:35;;;;;;;;;;;23.70;64.40;;;;;;10327871;28;93471;-64
2023/06/28 18:45:42;;;;;;;;;;;23.70;64.40;;;;;;10325100;28;93554;-63
2023/06/28 18:50:44;;;;;;;;;;;23.70;64.70;;;;;;10326101;28;93618;-63
2023/06/28 18:55:46;;;;;;;;;;;23.70;64.60;;;;;;10326717;28;93855;-63
2023/06/28 19:00:48;;;;;;;;;;;23.70;64.70;;;;;;10327949;28;93877;-63
2023/06/28 19:05:49;;;;;;;;;;;23.60;64.90;;;;;;10327131;28;92726;-63
2023/06/28 19:10:51;;;;;;;;;;;23.60;65.00;;;;;;10326702;28;94439;-63
2023/06/28 19:15:54;;;;;;;;;;;23.60;65.00;;;;;;10324010;28;95886;-64
2023/06/28 19:20:55;;;;;;;;;;;23.60;65.10;;;;;;10326513;28;93343;-64
2023/06/28 19:25:57;;;;;;;;;;;23.60;65.10;;;;;;10330512;28;93643;-63
2023/06/28 19:30:59;;;;;;;;;;;23.60;64.90;;;;;;10332909;28;94728;-63
2023/06/28 19:36:01;;;;;;;;;;;23.70;65.10;;;;;;10333726;28;94426;-64
2023/06/28 19:41:02;;;;;;;;;;;23.70;65.00;;;;;;10331371;28;93923;-63
2023/06/28 19:46:04;;;;;;;;;;;23.70;65.10;;;;;;10332019;28;93649;-62
2023/06/28 19:51:06;;;;;;;;;;;23.60;65.10;;;;;;10333391;28;93966;-63
2023/06/28 19:56:08;;;;;;;;;;;23.70;65.10;;;;;;10331466;28;94519;-63
2023/06/28 20:01:10;;;;;;;;;;;23.70;65.10;;;;;;10332645;28;92974;-63
2023/06/28 20:06:12;;;;;;;;;;;23.70;65.10;;;;;;10328530;28;96499;-63
2023/06/28 20:11:14;;;;;;;;;;;23.70;65.10;;;;;;10332232;28;93411;-63
2023/06/28 20:16:15;;;;;;;;;;;23.70;65.10;;;;;;10332405;28;93483;-63
2023/06/28 20:21:17;;;;;;;;;;;23.70;65.10;;;;;;10331668;28;93390;-62
2023/06/28 20:26:19;;;;;;;;;;;23.70;65.20;;;;;;10331575;28;93762;-62
2023/06/28 20:31:21;;;;;;;;;;;23.70;65.40;;;;;;10331752;28;92952;-62
2023/06/28 20:36:22;;;;;;;;;;;23.80;64.80;;;;;;10331013;28;94447;-63
2023/06/28 20:41:24;;;;;;;;;;;23.80;64.50;;;;;;10332640;28;92952;-62
2023/06/28 20:46:27;;;;;;;;;;;23.80;64.40;;;;;;10331798;28;93533;-63
2023/06/28 20:51:28;;;;;;;;;;;23.80;64.30;;;;;;10331764;28;96202;-64
2023/06/28 20:56:30;;;;;;;;;;;23.80;64.10;;;;;;10329058;28;95812;-63
2023/06/28 21:01:32;;;;;;;;;;;23.80;64.00;;;;;;10329500;28;94800;-62
2023/06/28 21:06:33;;;;;;;;;;;23.80;63.90;;;;;;10331705;28;93121;-63
2023/06/28 21:11:35;;;;;;;;;;;23.80;63.80;;;;;;10329045;28;94509;-63
2023/06/28 21:16:37;;;;;;;;;;;23.80;63.80;;;;;;10328883;28;93700;-62
2023/06/28 21:21:38;;;;;;;;;;;23.70;63.80;;;;;;10328782;28;92976;-63
2023/06/28 21:26:44;;;;;;;;;;;23.80;63.80;;;;;;10329556;28;94107;-62
2023/06/28 21:31:46;;;;;;;;;;;23.80;63.70;;;;;;10330157;28;93850;-63
2023/06/28 21:36:48;;;;;;;;;;;23.80;63.70;;;;;;10329559;28;93446;-63
2023/06/28 21:41:50;;;;;;;;;;;23.70;63.60;;;;;;10328882;28;93467;-62
2023/06/28 21:46:51;;;;;;;;;;;23.70;63.60;;;;;;10324504;28;95876;-63
2023/06/28 21:51:54;;;;;;;;;;;23.70;63.60;;;;;;10328324;28;94612;-63
2023/06/28 21:56:56;;;;;;;;;;;23.70;63.60;;;;;;10329503;28;94348;-63
2023/06/28 22:01:58;;;;;;;;;;;23.70;63.60;;;;;;10329965;28;93961;-62
2023/06/28 22:06:59;;;;;;;;;;;23.70;63.80;;;;;;10328414;28;93691;-63
2023/06/28 22:12:08;;;;;;;;;;;23.70;63.60;;;;;;10328216;28;93451;-63
2023/06/28 22:17:11;;;;;;;;;;;23.70;63.80;;;;;;10329058;28;92592;-62
2023/06/28 22:22:13;;;;;;;;;;;23.70;63.60;;;;;;10328388;28;93084;-63
2023/06/28 22:27:16;;;;;;;;;;;23.70;63.60;;;;;;10329256;28;93733;-63
2023/06/28 22:32:18;;;;;;;;;;;23.70;63.60;;;;;;10329153;28;93836;-64
2023/06/28 22:37:19;;;;;;;;;;;23.70;63.40;;;;;;10324763;28;95921;-62
2023/06/28 22:42:21;;;;;;;;;;;23.70;63.40;;;;;;10328982;28;94574;-62
2023/06/28 22:47:23;;;;;;;;;;;23.70;63.20;;;;;;10327319;28;96192;-62
2023/06/28 22:52:27;;;;;;;;;;;23.70;63.30;;;;;;10326660;28;114093;-61
2023/06/28 22:57:28;;;;;;;;;;;23.70;63.20;;;;;;10327805;28;93826;-62
2023/06/28 23:02:30;;;;;;;;;;;23.70;63.20;;;;;;10327431;28;94507;-62
2023/06/28 23:07:33;;;;;;;;;;;23.70;63.10;;;;;;10327796;28;92736;-62
2023/06/28 23:12:36;;;;;;;;;;;23.70;63.00;;;;;;10328583;28;92752;-62
2023/06/28 23:17:38;;;;;;;;;;;23.70;63.00;;;;;;10326285;28;93221;-62
2023/06/28 23:22:40;;;;;;;;;;;23.70;63.00;;;;;;10327038;28;92987;-61
2023/06/28 23:27:43;;;;;;;;;;;23.70;62.90;;;;;;10324510;28;95320;-62
2023/06/28 23:32:49;;;;;;;;;;;23.70;62.90;;;;;;10327596;28;93500;-63
2023/06/28 23:37:50;;;;;;;;;;;23.80;62.90;;;;;;10327604;28;93275;-62
2023/06/28 23:42:52;;;;;;;;;;;23.80;62.90;;;;;;10326783;28;93469;-62
2023/06/28 23:47:56;;;;;;;;;;;23.80;62.90;;;;;;10325411;28;94678;-61
2023/06/28 23:53:01;;;;;;;;;;;23.70;62.80;;;;;;10326013;28;93482;-62
2023/06/28 23:58:03;;;;;;;;;;;23.70;62.80;;;;;;10325658;28;93371;-62
